Time;durP1;ratioP1;P1;durP2;ratioP2;P2;SDS_P1;SDS_P2;PMS_P1;PMS_P2;Temp;Humidity;BMP_temperature;BMP_pressure;BME280_temperature;BME280_humidity;BME280_pressure;Samples;Min_cycle;Max_cycle;Signal;HPM_P1;HPM_P2
2024/01/27 00:00:32;;;;;;;;;;;;;;;5.30;100.00;101497.47;4896471;29;20367;-80
2024/01/27 00:02:57;;;;;;;;;;;;;;;5.34;100.00;101499.28;4896638;29;19923;-81
2024/01/27 00:05:23;;;;;;;;;;;;;;;5.32;100.00;101499.25;4896816;29;19923;-79
2024/01/27 00:07:48;;;;;;;;;;;;;;;5.33;100.00;101497.50;4897172;29;20006;-80
2024/01/27 00:10:13;;;;;;;;;;;;;;;5.26;100.00;101496.59;4897062;29;20014;-80
2024/01/27 00:12:39;;;;;;;;;;;;;;;5.26;100.00;101486.97;4879811;29;19926;-81
2024/01/27 00:15:06;;;;;;;;;;;;;;;5.27;100.00;101488.72;4895846;29;19932;-78
2024/01/27 00:17:32;;;;;;;;;;;;;;;5.26;100.00;101486.97;4894402;29;19927;-79
2024/01/27 00:19:57;;;;;;;;;;;;;;;5.30;100.00;101494.84;4896157;29;19974;-79
2024/01/27 00:22:22;;;;;;;;;;;;;;;5.26;100.00;101486.97;4895789;29;19923;-79
2024/01/27 00:24:47;;;;;;;;;;;;;;;5.30;100.00;101486.97;4896265;29;19927;-80
2024/01/27 00:27:12;;;;;;;;;;;;;;;5.28;100.00;101487.84;4880242;29;19931;-78
2024/01/27 00:29:38;;;;;;;;;;;;;;;5.30;100.00;101489.59;4897057;29;19924;-81
2024/01/27 00:32:03;;;;;;;;;;;;;;;5.27;100.00;101486.09;4893953;29;20014;-78
2024/01/27 00:34:28;;;;;;;;;;;;;;;5.30;100.00;101486.97;4897137;29;19919;-79
2024/01/27 00:36:53;;;;;;;;;;;;;;;5.25;100.00;101489.59;4897224;29;19927;-79
2024/01/27 00:39:19;;;;;;;;;;;;;;;5.26;100.00;101492.22;4897104;29;19930;-79
2024/01/27 06:21:05;;;;;;;;;;;;;;;4.94;100.00;101630.34;4911348;29;20286;-80
2024/01/27 06:23:30;;;;;;;;;;;;;;;4.89;100.00;101640.81;4918283;29;20425;-80
2024/01/27 06:25:55;;;;;;;;;;;;;;;4.87;100.00;101635.53;4901318;29;20031;-80
2024/01/27 06:28:20;;;;;;;;;;;;;;;4.87;100.00;101635.53;4918238;29;19966;-80
2024/01/27 06:30:46;;;;;;;;;;;;;;;4.86;100.00;101639.03;4916059;29;20010;-80
2024/01/27 06:33:11;;;;;;;;;;;;;;;4.92;100.00;101632.97;4916932;29;19923;-80
2024/01/27 06:35:41;;;;;;;;;;;;;;;4.86;100.00;101631.16;4916783;29;20306;-82
2024/01/27 06:38:06;;;;;;;;;;;;;;;4.87;100.00;101622.41;4918150;29;19920;-80
2024/01/27 06:40:32;;;;;;;;;;;;;;;4.88;100.00;101625.91;4901144;29;20267;-80
2024/01/27 06:42:57;;;;;;;;;;;;;;;4.87;100.00;101638.16;4917330;29;19919;-81
2024/01/27 06:45:22;;;;;;;;;;;;;;;4.90;100.00;101656.59;4917888;29;19979;-81
2024/01/27 06:47:47;;;;;;;;;;;;;;;4.88;100.00;101649.53;4916492;29;19919;-81
2024/01/27 06:50:13;;;;;;;;;;;;;;;4.88;100.00;101658.34;4917828;29;19934;-80
2024/01/27 06:52:39;;;;;;;;;;;;;;;4.90;100.00;101651.34;4917958;29;20266;-81
2024/01/27 06:55:06;;;;;;;;;;;;;;;4.87;100.00;101640.78;4900877;29;19998;-81
2024/01/27 06:57:32;;;;;;;;;;;;;;;4.86;100.00;101646.91;4917656;29;20370;-81
2024/01/27 06:59:57;;;;;;;;;;;;;;;4.85;100.00;101660.94;4917788;29;19974;-80
2024/01/27 07:02:23;;;;;;;;;;;;;;;4.86;100.00;101667.91;4917918;29;19922;-81
2024/01/27 07:04:48;;;;;;;;;;;;;;;4.87;100.00;101661.81;4899384;29;20418;-81
2024/01/27 07:07:13;;;;;;;;;;;;;;;4.86;100.00;101654.78;4917747;29;19927;-81
2024/01/27 07:09:38;;;;;;;;;;;;;;;4.87;100.00;101664.44;4917514;29;19974;-80
2024/01/27 07:12:04;;;;;;;;;;;;;;;4.83;100.00;101660.00;4917520;29;19978;-81
2024/01/27 07:14:29;;;;;;;;;;;;;;;4.83;100.00;101669.63;4917510;29;19969;-81
2024/01/27 07:16:54;;;;;;;;;;;;;;;4.86;100.00;101674.94;4917292;29;19954;-80
2024/01/27 07:19:19;;;;;;;;;;;;;;;4.88;100.00;101663.59;4915221;29;19926;-80
2024/01/27 07:21:45;;;;;;;;;;;;;;;4.86;100.00;101649.53;4917269;29;19927;-81
2024/01/27 07:24:10;;;;;;;;;;;;;;;4.86;100.00;101640.78;4917289;29;20014;-81
2024/01/27 07:26:35;;;;;;;;;;;;;;;4.85;100.00;101647.78;4917115;29;19958;-82
2024/01/27 07:29:00;;;;;;;;;;;;;;;4.84;100.00;101658.28;4917267;29;19989;-81
2024/01/27 07:31:26;;;;;;;;;;;;;;;4.80;100.00;101645.97;4917069;29;19923;-83
2024/01/27 07:33:51;;;;;;;;;;;;;;;4.79;100.00;101639.84;4915798;29;19923;-82
2024/01/27 07:36:17;;;;;;;;;;;;;;;4.78;100.00;101648.56;4917020;29;19927;-81
2024/01/27 07:38:42;;;;;;;;;;;;;;;4.82;100.00;101665.25;4916961;29;19929;-82
2024/01/27 07:41:07;;;;;;;;;;;;;;;4.80;100.00;101675.72;4916588;29;20370;-79
2024/01/27 07:43:33;;;;;;;;;;;;;;;4.78;100.00;101679.22;4917153;29;20359;-81
2024/01/27 07:45:58;;;;;;;;;;;;;;;4.79;100.00;101679.25;4916775;29;19919;-81
2024/01/27 07:48:23;;;;;;;;;;;;;;;4.86;100.00;101674.94;4915438;29;20382;-82
2024/01/27 07:50:49;;;;;;;;;;;;;;;4.79;100.00;101662.59;4916699;29;20453;-81
2024/01/27 07:53:15;;;;;;;;;;;;;;;4.84;100.00;101656.53;4916762;29;20430;-80
2024/01/27 07:55:40;;;;;;;;;;;;;;;4.78;100.00;101669.59;4916408;29;19926;-82
2024/01/27 07:58:05;;;;;;;;;;;;;;;4.77;100.00;101685.31;4916750;29;19930;-82
2024/01/27 08:00:32;;;;;;;;;;;;;;;4.79;100.00;101691.50;4916245;29;19919;-86
2024/01/27 08:41:26;;;;;;;;;;;;;;;4.76;100.00;101679.19;5101424;23;20375;-85
2024/01/27 08:43:52;;;;;;;;;;;;;;;4.75;100.00;101671.31;4916099;29;19923;-82
2024/01/27 08:46:19;;;;;;;;;;;;;;;4.80;100.00;101666.97;4915900;29;19934;-84
2024/01/27 08:48:44;;;;;;;;;;;;;;;4.75;100.00;101674.81;4899005;29;19919;-85
2024/01/27 08:51:10;;;;;;;;;;;;;;;4.76;100.00;101678.34;4915901;29;19942;-85
2024/01/27 08:53:35;;;;;;;;;;;;;;;4.76;100.00;101681.84;4915207;29;19930;-83
2024/01/27 08:56:01;;;;;;;;;;;;;;;4.77;100.00;101677.44;4914700;29;20370;-89
2024/01/27 08:58:26;;;;;;;;;;;;;;;4.73;100.00;101668.66;4916198;29;19919;-84
2024/01/27 09:00:52;;;;;;;;;;;;;;;4.77;100.00;101674.81;4916344;29;20369;-87
2024/01/27 09:03:20;;;;;;;;;;;;;;;4.77;100.00;101685.31;4915022;29;19990;-87
2024/01/27 09:05:45;;;;;;;;;;;;;;;4.76;100.00;101683.59;4916199;29;19926;-85
2024/01/27 09:08:10;;;;;;;;;;;;;;;4.74;100.00;101680.94;4915904;29;19923;-85
2024/01/27 09:10:35;;;;;;;;;;;;;;;4.71;100.00;101678.28;4914476;29;19919;-85
2024/01/27 09:13:01;;;;;;;;;;;;;;;4.75;100.00;101672.19;4915890;29;19927;-83
2024/01/27 09:15:26;;;;;;;;;;;;;;;4.72;100.00;101669.50;4915833;29;19959;-83
2024/01/27 09:17:51;;;;;;;;;;;;;;;4.75;100.00;101669.56;4915914;29;19926;-83
2024/01/27 09:20:16;;;;;;;;;;;;;;;4.75;100.00;101664.28;4915818;29;19919;-86
2024/01/27 09:22:42;;;;;;;;;;;;;;;4.75;100.00;101664.28;4915944;29;20264;-83
2024/01/27 09:25:08;;;;;;;;;;;;;;;4.72;100.00;101672.13;4914485;29;19925;-85
2024/01/27 09:27:34;;;;;;;;;;;;;;;4.79;100.00;101670.50;4915705;29;20306;-85
2024/01/27 09:29:59;;;;;;;;;;;;;;;4.78;100.00;101655.59;4915956;29;19922;-81
2024/01/27 09:32:24;;;;;;;;;;;;;;;4.76;100.00;101647.69;4898607;29;20291;-86
2024/01/27 09:34:50;;;;;;;;;;;;;;;4.77;100.00;101653.81;4915920;29;19919;-85
2024/01/27 09:37:15;;;;;;;;;;;;;;;4.77;100.00;101654.72;4898563;29;19920;-83
2024/01/27 09:39:41;;;;;;;;;;;;;;;4.77;100.00;101659.97;4914422;29;20719;-83
2024/01/27 09:42:07;;;;;;;;;;;;;;;4.79;100.00;101660.84;4898368;29;19991;-86
2024/01/27 09:44:33;;;;;;;;;;;;;;;4.78;100.00;101666.09;4916119;29;19990;-83
2024/01/27 09:46:58;;;;;;;;;;;;;;;4.76;100.00;101668.69;4915414;29;19919;-82
2024/01/27 09:49:26;;;;;;;;;;;;;;;4.79;100.00;101663.47;4915430;29;19923;-86
2024/01/27 09:51:51;;;;;;;;;;;;;;;4.77;100.00;101667.84;4915196;29;19922;-80
2024/01/27 09:54:17;;;;;;;;;;;;;;;4.79;100.00;101667.88;4915221;29;19923;-82
2024/01/27 09:56:43;;;;;;;;;;;;;;;4.77;100.00;101670.47;4914872;29;20378;-82
2024/01/27 09:59:09;;;;;;;;;;;;;;;4.79;100.00;101663.47;4915372;29;20037;-86
2024/01/27 10:01:35;;;;;;;;;;;;;;;4.77;100.00;101666.94;4915293;29;19978;-83
2024/01/27 10:04:00;;;;;;;;;;;;;;;4.78;100.00;101656.44;4915389;29;19916;-80
2024/01/27 10:06:26;;;;;;;;;;;;;;;4.76;100.00;101658.19;4901580;29;19919;-84
2024/01/27 10:08:53;;;;;;;;;;;;;;;4.76;100.00;101666.06;4918884;29;19941;-87
2024/01/27 10:11:19;;;;;;;;;;;;;;;4.80;100.00;101659.09;4917347;29;19934;-90
2024/01/27 10:13:45;;;;;;;;;;;;;;;4.76;100.00;101667.81;4918685;29;19958;-83
2024/01/27 10:16:12;;;;;;;;;;;;;;;4.81;100.00;101667.00;4918582;29;19965;-81
2024/01/27 10:18:37;;;;;;;;;;;;;;;4.76;100.00;101668.69;4918707;29;19923;-85
2024/01/27 10:21:15;;;;;;;;;;;;;;;4.77;100.00;101664.31;4918765;29;19919;-83
2024/01/27 10:23:41;;;;;;;;;;;;;;;4.78;100.00;101656.44;4918497;29;20366;-87
2024/01/27 10:26:10;;;;;;;;;;;;;;;4.78;100.00;101658.22;4917372;29;19930;-83
2024/01/27 10:28:35;;;;;;;;;;;;;;;4.77;100.00;101651.19;4917887;29;19923;-82
2024/01/27 10:31:13;;;;;;;;;;;;;;;4.77;100.00;101653.81;4918072;29;20259;-82
2024/01/27 10:33:38;;;;;;;;;;;;;;;4.80;100.00;101652.09;4917951;29;19923;-79
2024/01/27 10:36:04;;;;;;;;;;;;;;;4.84;100.00;101653.03;4918226;29;19983;-81
2024/01/27 10:38:38;;;;;;;;;;;;;;;4.80;100.00;101648.59;4901281;29;19950;-80
2024/01/27 10:41:07;;;;;;;;;;;;;;;4.76;100.00;101642.44;4916587;29;19919;-80
2024/01/27 10:43:33;;;;;;;;;;;;;;;4.77;100.00;101641.59;4917864;29;20010;-81
2024/01/27 10:45:58;;;;;;;;;;;;;;;4.75;100.00;101638.03;4917943;29;20010;-85
2024/01/27 10:48:25;;;;;;;;;;;;;;;4.80;100.00;101631.06;4918060;29;20386;-84
2024/01/27 10:50:51;;;;;;;;;;;;;;;4.77;100.00;101633.69;4918093;29;19925;-85
2024/01/27 10:53:23;;;;;;;;;;;;;;;4.82;100.00;101624.13;4918034;29;20013;-83
2024/01/27 10:55:50;;;;;;;;;;;;;;;4.84;100.00;101627.63;4916502;29;19919;-81
2024/01/27 10:58:15;;;;;;;;;;;;;;;4.81;100.00;101619.72;4918207;29;20359;-81
2024/01/27 11:00:41;;;;;;;;;;;;;;;4.81;100.00;101609.22;4917818;29;19948;-85
2024/01/27 11:03:07;;;;;;;;;;;;;;;4.86;100.00;101618.00;4917796;29;19915;-79
2024/01/27 11:05:35;;;;;;;;;;;;;;;4.80;100.00;101610.06;4917911;29;20263;-83
2024/01/27 11:08:00;;;;;;;;;;;;;;;4.83;100.00;101612.72;4917732;29;20264;-88
2024/01/27 11:10:26;;;;;;;;;;;;;;;4.80;100.00;101610.06;4917289;29;19925;-78
2024/01/27 11:12:54;;;;;;;;;;;;;;;4.81;100.00;101609.22;4900494;29;20402;-84
2024/01/27 11:15:20;;;;;;;;;;;;;;;4.84;100.00;101600.50;4900930;29;20403;-82
2024/01/27 11:17:46;;;;;;;;;;;;;;;4.85;100.00;101592.63;4916801;29;20009;-82
2024/01/27 11:20:12;;;;;;;;;;;;;;;4.84;100.00;101592.63;4917621;29;19919;-82
2024/01/27 11:22:39;;;;;;;;;;;;;;;4.82;100.00;101584.72;4899530;29;19920;-83
2024/01/27 11:25:10;;;;;;;;;;;;;;;4.84;100.00;101590.84;4916355;29;19919;-79
2024/01/27 11:27:36;;;;;;;;;;;;;;;4.85;100.00;101592.63;4916155;29;19935;-80
2024/01/27 11:30:01;;;;;;;;;;;;;;;4.88;100.00;101583.88;4900437;29;19923;-82
2024/01/27 11:32:26;;;;;;;;;;;;;;;4.83;100.00;101578.56;4917456;29;19926;-84
2024/01/27 11:34:52;;;;;;;;;;;;;;;4.87;100.00;101569.88;4917514;29;19919;-84
2024/01/27 11:37:24;;;;;;;;;;;;;;;4.85;100.00;101571.63;4900193;29;20274;-80
2024/01/27 11:39:49;;;;;;;;;;;;;;;4.85;100.00;101574.25;4915812;29;19968;-80
2024/01/27 11:42:14;;;;;;;;;;;;;;;4.86;100.00;101561.97;4917074;29;20013;-85
2024/01/27 11:44:40;;;;;;;;;;;;;;;4.89;100.00;101562.00;4917084;29;19919;-83
2024/01/27 11:47:13;;;;;;;;;;;;;;;4.89;100.00;101557.63;4917134;29;19926;-81
2024/01/27 11:49:39;;;;;;;;;;;;;;;4.90;100.00;101562.03;4917027;29;19919;-81
2024/01/27 11:52:06;;;;;;;;;;;;;;;4.91;100.00;101549.75;4900022;29;20367;-82
2024/01/27 11:54:31;;;;;;;;;;;;;;;4.88;100.00;101550.63;4915795;29;19975;-78
2024/01/27 11:56:56;;;;;;;;;;;;;;;4.86;100.00;101544.47;4916974;29;19919;-81
2024/01/27 11:59:22;;;;;;;;;;;;;;;4.87;100.00;101546.22;4916975;29;20298;-85
2024/01/27 12:01:48;;;;;;;;;;;;;;;4.88;100.00;101548.00;4899621;29;19974;-84
2024/01/27 12:04:14;;;;;;;;;;;;;;;4.87;100.00;101540.97;4899952;29;19926;-81
2024/01/27 12:06:40;;;;;;;;;;;;;;;4.88;100.00;101541.84;4916591;29;19923;-85
2024/01/27 12:09:11;;;;;;;;;;;;;;;4.88;100.00;101532.25;4916622;29;19919;-89
2024/01/27 12:11:37;;;;;;;;;;;;;;;4.93;100.00;101529.66;4899102;29;19923;-85
2024/01/27 12:14:02;;;;;;;;;;;;;;;4.90;100.00;101533.13;4916830;29;19927;-85
2024/01/27 12:16:28;;;;;;;;;;;;;;;4.85;100.00;101524.34;4916460;29;20345;-84
2024/01/27 12:18:56;;;;;;;;;;;;;;;4.85;100.00;101532.22;4916643;29;19923;-82
2024/01/27 12:21:21;;;;;;;;;;;;;;;4.91;100.00;101537.53;4899590;29;19919;-81
2024/01/27 12:23:53;;;;;;;;;;;;;;;4.88;100.00;101537.50;4916328;29;20450;-84
2024/01/27 12:26:23;;;;;;;;;;;;;;;4.93;100.00;101537.53;4915387;29;20410;-86
2024/01/27 12:28:48;;;;;;;;;;;;;;;4.91;100.00;101532.28;4916327;29;19923;-85
2024/01/27 12:31:15;;;;;;;;;;;;;;;4.93;100.00;101526.13;4916572;29;20362;-86
2024/01/27 12:33:42;;;;;;;;;;;;;;;4.94;100.00;101520.88;4916022;29;19978;-79
2024/01/27 12:36:07;;;;;;;;;;;;;;;4.93;100.00;101523.50;4916302;29;20433;-83
2024/01/27 12:38:33;;;;;;;;;;;;;;;4.90;100.00;101517.38;4916451;29;19919;-82
2024/01/27 12:40:58;;;;;;;;;;;;;;;4.95;100.00;101519.16;4897946;29;19959;-86
2024/01/27 12:43:23;;;;;;;;;;;;;;;4.94;100.00;101523.50;4916330;29;20380;-80
2024/01/27 12:45:48;;;;;;;;;;;;;;;4.91;100.00;101534.00;4916061;29;19927;-83
2024/01/27 12:48:13;;;;;;;;;;;;;;;4.88;100.00;101521.72;4916345;29;19927;-79
2024/01/27 12:50:39;;;;;;;;;;;;;;;4.90;100.00;101514.75;4915990;29;19927;-79
2024/01/27 12:53:08;;;;;;;;;;;;;;;4.89;100.00;101506.84;4916211;29;19919;-83
2024/01/27 12:55:33;;;;;;;;;;;;;;;4.89;100.00;101512.97;4915197;29;19919;-78
2024/01/27 12:57:58;;;;;;;;;;;;;;;4.89;100.00;101507.72;4916290;29;19987;-81
2024/01/27 13:00:24;;;;;;;;;;;;;;;4.90;100.00;101506.00;4916049;29;20330;-82
2024/01/27 13:02:49;;;;;;;;;;;;;;;4.87;100.00;101512.09;4898588;29;19926;-82
2024/01/27 13:05:14;;;;;;;;;;;;;;;4.96;100.00;101502.50;4898748;29;20287;-83
2024/01/27 13:07:40;;;;;;;;;;;;;;;4.87;100.00;101498.94;4898895;29;20390;-80
2024/01/27 13:10:05;;;;;;;;;;;;;;;4.87;100.00;101493.69;4914369;29;19919;-81
2024/01/27 13:12:31;;;;;;;;;;;;;;;4.90;100.00;101483.22;4915989;29;19935;-83
2024/01/27 13:14:56;;;;;;;;;;;;;;;5.54;100.00;101481.00;4915073;29;20278;-80
2024/01/27 13:17:21;;;;;;;;;;;;;;;5.44;100.00;101474.78;4919031;29;20299;-90
2024/01/27 13:19:47;;;;;;;;;;;;;;;5.38;100.00;101469.50;4920340;29;19919;-78
2024/01/27 13:22:12;;;;;;;;;;;;;;;5.38;100.00;101464.25;4922124;29;19919;-82
2024/01/27 13:24:38;;;;;;;;;;;;;;;5.33;100.00;101465.97;4918317;29;19927;-84
2024/01/27 13:27:04;;;;;;;;;;;;;;;5.33;100.00;101466.84;4918292;29;19920;-81
2024/01/27 13:29:29;;;;;;;;;;;;;;;5.37;100.00;101470.38;4922225;29;19927;-86
2024/01/27 13:31:54;;;;;;;;;;;;;;;5.31;100.00;101468.56;4904375;29;19923;-78
2024/01/27 13:34:19;;;;;;;;;;;;;;;5.31;100.00;101462.44;4900509;29;19971;-87
2024/01/27 13:36:45;;;;;;;;;;;;;;;5.26;100.00;101455.44;4917364;29;19940;-86
2024/01/27 13:39:10;;;;;;;;;;;;;;;5.33;100.00;101460.69;4917062;29;19923;-86
2024/01/27 13:41:35;;;;;;;;;;;;;;;5.34;100.00;101451.94;4917871;29;19923;-80
2024/01/27 13:44:00;;;;;;;;;;;;;;;5.33;100.00;101447.56;4918980;29;20005;-80
2024/01/27 13:46:25;;;;;;;;;;;;;;;5.32;100.00;101438.81;4919032;29;20402;-80
2024/01/27 13:48:51;;;;;;;;;;;;;;;5.31;100.00;101442.28;4919682;29;19978;-79
2024/01/27 13:51:16;;;;;;;;;;;;;;;5.31;100.00;101436.16;4919128;29;19949;-83
2024/01/27 13:53:41;;;;;;;;;;;;;;;5.28;100.00;101432.66;4919296;29;20275;-83
2024/01/27 13:56:07;;;;;;;;;;;;;;;5.35;100.00;101430.06;4917871;29;20005;-79
2024/01/27 13:58:32;;;;;;;;;;;;;;;5.34;100.00;101425.66;4919543;29;19958;-85
2024/01/27 14:00:59;;;;;;;;;;;;;;;5.35;100.00;101435.31;4921653;29;19984;-80
2024/01/27 14:03:24;;;;;;;;;;;;;;;5.36;100.00;101426.53;4919877;29;19926;-87
2024/01/27 14:05:50;;;;;;;;;;;;;;;5.38;100.00;101427.44;4919499;29;19919;-89
2024/01/27 14:08:17;;;;;;;;;;;;;;;5.28;100.00;101427.41;4919075;29;19929;-82
2024/01/27 14:10:43;;;;;;;;;;;;;;;5.34;100.00;101436.19;4917529;29;20002;-79
2024/01/27 14:13:09;;;;;;;;;;;;;;;5.39;100.00;101429.19;4919408;29;20406;-80
2024/01/27 14:15:37;;;;;;;;;;;;;;;5.38;100.00;101433.56;4919022;29;20031;-87
2024/01/27 14:18:05;;;;;;;;;;;;;;;5.32;100.00;101428.28;4919059;29;19931;-86
2024/01/27 14:20:32;;;;;;;;;;;;;;;5.32;100.00;101417.78;4919203;29;19920;-79
2024/01/27 14:22:57;;;;;;;;;;;;;;;5.33;100.00;101403.78;4902006;29;20354;-78
2024/01/27 14:25:23;;;;;;;;;;;;;;;5.36;100.00;101414.31;4917617;29;19934;-91
2024/01/27 14:27:48;;;;;;;;;;;;;;;5.36;100.00;101418.66;4918425;29;19923;-78
2024/01/27 14:30:13;;;;;;;;;;;;;;;5.32;100.00;101417.78;4901668;29;19930;-76
2024/01/27 14:32:39;;;;;;;;;;;;;;;5.32;100.00;101416.91;4918833;29;20367;-78
2024/01/27 14:35:06;;;;;;;;;;;;;;;5.32;100.00;101417.78;4918811;29;19924;-80
2024/01/27 14:37:31;;;;;;;;;;;;;;;5.31;100.00;101420.38;4901805;29;20497;-79
2024/01/27 14:39:57;;;;;;;;;;;;;;;5.33;100.00;101416.00;4918208;29;19957;-89
2024/01/27 14:42:25;;;;;;;;;;;;;;;5.30;100.00;101422.16;4917551;29;19923;-80
2024/01/27 14:44:53;;;;;;;;;;;;;;;5.30;100.00;101423.88;4918476;29;19926;-87
2024/01/27 14:47:19;;;;;;;;;;;;;;;5.32;100.00;101424.78;4918398;29;19926;-87
2024/01/27 14:49:45;;;;;;;;;;;;;;;5.32;100.00;101420.41;4918358;29;20339;-88
2024/01/27 14:52:12;;;;;;;;;;;;;;;5.30;100.00;101423.88;4917417;29;19923;-85
2024/01/27 14:54:37;;;;;;;;;;;;;;;5.35;100.00;101416.91;4917508;29;19919;-90
2024/01/27 14:57:03;;;;;;;;;;;;;;;5.25;100.00;101406.34;4918470;29;19923;-78
2024/01/27 14:59:28;;;;;;;;;;;;;;;5.29;100.00;101417.75;4917882;29;19923;-78
2024/01/27 15:01:54;;;;;;;;;;;;;;;5.36;100.00;101418.66;4917840;29;20037;-77
2024/01/27 15:04:19;;;;;;;;;;;;;;;5.33;100.00;101414.28;4917904;29;20289;-82
2024/01/27 15:06:46;;;;;;;;;;;;;;;5.30;100.00;101405.47;4901443;29;19919;-77
2024/01/27 15:09:15;;;;;;;;;;;;;;;5.32;100.00;101403.75;4917990;29;19919;-81
2024/01/27 15:11:40;;;;;;;;;;;;;;;5.25;100.00;101406.34;4899679;29;20295;-88
2024/01/27 15:14:06;;;;;;;;;;;;;;;5.23;100.00;101402.84;4918112;29;19924;-78
2024/01/27 15:16:32;;;;;;;;;;;;;;;5.28;100.00;101402.84;4901260;29;19926;-79
2024/01/27 15:18:57;;;;;;;;;;;;;;;5.30;100.00;101401.13;4900604;29;19918;-76
2024/01/27 15:21:25;;;;;;;;;;;;;;;5.32;100.00;101402.00;4916803;29;20013;-77
2024/01/27 15:23:50;;;;;;;;;;;;;;;5.26;100.00;101402.88;4919770;29;19927;-87
2024/01/27 15:26:15;;;;;;;;;;;;;;;5.27;100.00;101404.59;4916284;29;19923;-87
2024/01/27 15:28:40;;;;;;;;;;;;;;;5.34;100.00;101405.50;4918282;29;19971;-90
2024/01/27 15:31:06;;;;;;;;;;;;;;;5.31;100.00;101408.13;4917995;29;20268;-89
2024/01/27 15:33:31;;;;;;;;;;;;;;;5.29;100.00;101399.34;4918421;29;19966;-84
2024/01/27 15:35:56;;;;;;;;;;;;;;;5.29;100.00;101399.34;4918277;29;20356;-79
2024/01/27 15:38:21;;;;;;;;;;;;;;;5.25;100.00;101395.84;4919582;29;20407;-81
2024/01/27 15:40:47;;;;;;;;;;;;;;;5.26;100.00;101396.72;4918698;29;19986;-78
2024/01/27 15:43:12;;;;;;;;;;;;;;;5.30;100.00;101392.34;4917123;29;19965;-81
2024/01/27 15:45:37;;;;;;;;;;;;;;;5.30;100.00;101387.06;4918230;29;20294;-90
2024/01/27 15:48:02;;;;;;;;;;;;;;;5.26;100.00;101397.63;4918412;29;19962;-80
2024/01/27 15:50:28;;;;;;;;;;;;;;;5.26;100.00;101397.63;4919149;29;19915;-86
2024/01/27 15:52:57;;;;;;;;;;;;;;;5.31;100.00;101394.09;4920065;29;19923;-79
2024/01/27 15:55:22;;;;;;;;;;;;;;;5.36;100.00;101395.00;4916052;29;19923;-82
2024/01/27 15:57:47;;;;;;;;;;;;;;;5.36;100.00;101393.28;4917080;29;19919;-80
2024/01/27 16:00:13;;;;;;;;;;;;;;;5.33;100.00;101389.72;4917441;29;19938;-82
2024/01/27 16:02:38;;;;;;;;;;;;;;;5.32;100.00;101385.38;4915537;29;20271;-83
2024/01/27 16:05:04;;;;;;;;;;;;;;;5.27;100.00;101401.97;4917269;29;19962;-79
2024/01/27 16:07:29;;;;;;;;;;;;;;;5.32;100.00;101403.75;4918312;29;19923;-80
2024/01/27 16:09:57;;;;;;;;;;;;;;;5.28;100.00;101398.50;4899329;29;20256;-83
2024/01/27 16:12:22;;;;;;;;;;;;;;;5.26;100.00;101399.34;4917248;29;19923;-81
2024/01/27 16:14:47;;;;;;;;;;;;;;;5.30;100.00;101402.84;4916770;29;19923;-81
2024/01/27 16:17:12;;;;;;;;;;;;;;;5.29;100.00;101401.97;4916324;29;19923;-81
2024/01/27 16:19:38;;;;;;;;;;;;;;;5.31;100.00;101404.63;4916436;29;19927;-77
2024/01/27 16:22:03;;;;;;;;;;;;;;;5.30;100.00;101397.59;4916448;29;19974;-81
2024/01/27 16:24:28;;;;;;;;;;;;;;;5.33;100.00;101400.25;4899319;29;19923;-81
2024/01/27 16:26:53;;;;;;;;;;;;;;;5.27;100.00;101398.47;4899470;29;19919;-90
2024/01/27 16:29:19;;;;;;;;;;;;;;;5.27;100.00;101399.34;4917749;29;19919;-89
2024/01/27 16:31:44;;;;;;;;;;;;;;;5.26;100.00;101405.50;4916677;29;20339;-89
2024/01/27 16:34:09;;;;;;;;;;;;;;;5.27;100.00;101403.75;4900022;29;20006;-80
2024/01/27 16:36:39;;;;;;;;;;;;;;;5.30;100.00;101402.84;4899320;29;19961;-80
2024/01/27 16:39:04;;;;;;;;;;;;;;;5.31;100.00;101408.13;4915761;29;19982;-81
2024/01/27 16:41:29;;;;;;;;;;;;;;;5.27;100.00;101401.09;4913154;29;19930;-82
2024/01/27 16:43:55;;;;;;;;;;;;;;;5.29;100.00;101399.34;4916216;29;19966;-79
2024/01/27 16:46:20;;;;;;;;;;;;;;;5.28;100.00;101400.22;4916015;29;19927;-81
2024/01/27 16:48:45;;;;;;;;;;;;;;;5.33;100.00;101402.88;4915658;29;19959;-76
2024/01/27 16:51:10;;;;;;;;;;;;;;;5.33;100.00;101397.59;4916266;29;20048;-81
2024/01/27 16:53:36;;;;;;;;;;;;;;;5.33;100.00;101397.59;4916450;29;19919;-84
2024/01/27 16:56:01;;;;;;;;;;;;;;;5.27;100.00;101396.72;4897471;29;20294;-81
2024/01/27 16:58:27;;;;;;;;;;;;;;;5.26;100.00;101397.63;4915994;29;19923;-79
2024/01/27 17:00:52;;;;;;;;;;;;;;;5.25;100.00;101395.84;4898222;29;20002;-76
2024/01/27 17:03:18;;;;;;;;;;;;;;;5.27;100.00;101401.09;4916455;29;19926;-84
2024/01/27 17:05:43;;;;;;;;;;;;;;;5.23;100.00;101402.84;4899555;29;19930;-81
2024/01/27 17:08:09;;;;;;;;;;;;;;;5.23;100.00;101400.22;4898670;29;19957;-82
2024/01/27 17:10:34;;;;;;;;;;;;;;;5.25;100.00;101401.09;4914050;29;19930;-86
2024/01/27 17:13:00;;;;;;;;;;;;;;;5.24;100.00;101401.09;4914397;29;19990;-85
2024/01/27 17:15:26;;;;;;;;;;;;;;;5.30;100.00;101408.09;4917249;29;19979;-84
2024/01/27 17:17:51;;;;;;;;;;;;;;;5.27;100.00;101404.59;4919498;29;19924;-86
2024/01/27 17:20:17;;;;;;;;;;;;;;;5.28;100.00;101402.84;4918195;29;20385;-86
2024/01/27 17:22:42;;;;;;;;;;;;;;;5.28;100.00;101400.22;4919673;29;20009;-90
2024/01/27 17:25:08;;;;;;;;;;;;;;;5.31;100.00;101404.63;4918121;29;19919;-89
2024/01/27 17:27:34;;;;;;;;;;;;;;;5.26;100.00;101410.75;4918847;29;19923;-90
2024/01/27 17:30:03;;;;;;;;;;;;;;;5.32;100.00;101409.03;4919329;29;20402;-83
2024/01/27 17:32:28;;;;;;;;;;;;;;;5.34;100.00;101399.38;4918805;29;19915;-81
2024/01/27 17:34:54;;;;;;;;;;;;;;;5.26;100.00;101391.44;4918656;29;19930;-88
2024/01/27 17:37:19;;;;;;;;;;;;;;;5.30;100.00;101393.25;4901595;29;20286;-83
2024/01/27 17:39:44;;;;;;;;;;;;;;;5.33;100.00;101397.59;4900733;29;19919;-81
2024/01/27 17:42:09;;;;;;;;;;;;;;;5.27;100.00;101399.34;4900156;29;19927;-85
2024/01/27 17:44:35;;;;;;;;;;;;;;;5.22;100.00;101392.34;4918474;29;19978;-82
2024/01/27 17:47:00;;;;;;;;;;;;;;;5.30;100.00;101400.22;4902099;29;19929;-84
2024/01/27 17:49:25;;;;;;;;;;;;;;;5.20;100.00;101401.94;4917680;29;19935;-82
2024/01/27 17:51:50;;;;;;;;;;;;;;;5.22;100.00;101393.19;4919148;29;19980;-81
2024/01/27 17:54:16;;;;;;;;;;;;;;;5.23;100.00;101399.31;4916845;29;19954;-84
2024/01/27 17:56:41;;;;;;;;;;;;;;;5.23;100.00;101400.22;4917375;29;20026;-89
2024/01/27 17:59:06;;;;;;;;;;;;;;;5.27;100.00;101401.97;4918954;29;19927;-81
2024/01/27 18:01:32;;;;;;;;;;;;;;;5.25;100.00;101395.84;4918266;29;19923;-88
2024/01/27 18:03:57;;;;;;;;;;;;;;;5.30;100.00;101402.84;4917129;29;19924;-80
2024/01/27 18:06:23;;;;;;;;;;;;;;;5.35;100.00;101406.41;4919019;29;20417;-84
2024/01/27 18:08:48;;;;;;;;;;;;;;;5.23;100.00;101404.56;4918022;29;19990;-82
2024/01/27 18:11:13;;;;;;;;;;;;;;;5.28;100.00;101405.47;4915401;29;20399;-85
2024/01/27 18:13:40;;;;;;;;;;;;;;;5.24;100.00;101406.34;4918733;29;19950;-80
2024/01/27 18:16:08;;;;;;;;;;;;;;;5.22;100.00;101397.59;4918204;29;19919;-85
2024/01/27 18:18:33;;;;;;;;;;;;;;;5.24;100.00;101396.69;4918855;29;19923;-83
2024/01/27 18:20:58;;;;;;;;;;;;;;;5.28;100.00;101395.84;4900286;29;20276;-86
2024/01/27 18:23:23;;;;;;;;;;;;;;;5.28;100.00;101387.97;4918395;29;20025;-88
2024/01/27 18:25:49;;;;;;;;;;;;;;;5.18;100.00;101388.78;4916746;29;19923;-86
2024/01/27 18:28:14;;;;;;;;;;;;;;;5.21;100.00;101395.81;4917881;29;19930;-85
2024/01/27 18:30:39;;;;;;;;;;;;;;;5.22;100.00;101390.56;4920515;29;20035;-91
2024/01/27 18:33:04;;;;;;;;;;;;;;;5.23;100.00;101392.34;4919238;29;19975;-86
2024/01/27 18:35:30;;;;;;;;;;;;;;;5.20;100.00;101394.06;4915694;29;19919;-89
2024/01/27 18:37:57;;;;;;;;;;;;;;;5.20;100.00;101396.69;4917640;29;19971;-85
2024/01/27 18:40:22;;;;;;;;;;;;;;;5.27;100.00;101393.22;4918067;29;19923;-81
2024/01/27 18:42:47;;;;;;;;;;;;;;;5.26;100.00;101392.34;4901883;29;19959;-86
2024/01/27 18:45:13;;;;;;;;;;;;;;;5.24;100.00;101396.69;4903132;29;20286;-87